sensor_id;sensor_type;location;lat;lon;timestamp;P1;durP1;ratioP1;P2;durP2;ratioP2
14358;SDS011;7263;49.418;11.064;2023-04-15T00:02:13;4.77;;;4.37;;
14358;SDS011;7263;49.418;11.064;2023-04-15T00:04:45;6.80;;;4.60;;
14358;SDS011;7263;49.418;11.064;2023-04-15T00:07:13;4.50;;;3.70;;
14358;SDS011;7263;49.418;11.064;2023-04-15T00:09:43;4.60;;;4.20;;
14358;SDS011;7263;49.418;11.064;2023-04-15T00:12:19;4.53;;;4.13;;
14358;SDS011;7263;49.418;11.064;2023-04-15T00:14:48;4.77;;;4.30;;
14358;SDS011;7263;49.418;11.064;2023-04-15T00:17:18;5.10;;;4.70;;
14358;SDS011;7263;49.418;11.064;2023-04-15T00:19:50;4.70;;;3.97;;
14358;SDS011;7263;49.418;11.064;2023-04-15T00:22:25;4.97;;;4.53;;
14358;SDS011;7263;49.418;11.064;2023-04-15T00:24:52;4.80;;;4.40;;
14358;SDS011;7263;49.418;11.064;2023-04-15T00:27:22;4.93;;;4.43;;
14358;SDS011;7263;49.418;11.064;2023-04-15T00:29:51;5.37;;;4.87;;
14358;SDS011;7263;49.418;11.064;2023-04-15T00:32:21;5.53;;;5.03;;
14358;SDS011;7263;49.418;11.064;2023-04-15T00:34:54;6.63;;;4.87;;
14358;SDS011;7263;49.418;11.064;2023-04-15T00:37:21;5.07;;;4.57;;
14358;SDS011;7263;49.418;11.064;2023-04-15T00:40:12;5.20;;;4.70;;
14358;SDS011;7263;49.418;11.064;2023-04-15T00:42:46;4.73;;;4.33;;
14358;SDS011;7263;49.418;11.064;2023-04-15T00:45:13;10.10;;;8.63;;
14358;SDS011;7263;49.418;11.064;2023-04-15T00:47:43;38.33;;;24.03;;
14358;SDS011;7263;49.418;11.064;2023-04-15T00:50:13;19.10;;;16.40;;
14358;SDS011;7263;49.418;11.064;2023-04-15T00:52:43;5.33;;;4.40;;
14358;SDS011;7263;49.418;11.064;2023-04-15T00:55:18;4.73;;;4.17;;
14358;SDS011;7263;49.418;11.064;2023-04-15T00:57:47;5.30;;;4.10;;
14358;SDS011;7263;49.418;11.064;2023-04-15T01:00:20;4.93;;;4.47;;
14358;SDS011;7263;49.418;11.064;2023-04-15T01:02:50;4.53;;;4.13;;
14358;SDS011;7263;49.418;11.064;2023-04-15T01:05:24;4.67;;;4.17;;
14358;SDS011;7263;49.418;11.064;2023-04-15T01:07:53;6.80;;;4.10;;
14358;SDS011;7263;49.418;11.064;2023-04-15T01:10:26;4.47;;;4.07;;
14358;SDS011;7263;49.418;11.064;2023-04-15T01:13:01;4.40;;;4.00;;
14358;SDS011;7263;49.418;11.064;2023-04-15T01:15:31;4.30;;;4.00;;
14358;SDS011;7263;49.418;11.064;2023-04-15T01:17:58;4.30;;;3.90;;
14358;SDS011;7263;49.418;11.064;2023-04-15T01:20:27;5.60;;;4.00;;
14358;SDS011;7263;49.418;11.064;2023-04-15T01:22:58;4.70;;;4.10;;
14358;SDS011;7263;49.418;11.064;2023-04-15T01:25:31;5.07;;;4.53;;
14358;SDS011;7263;49.418;11.064;2023-04-15T01:28:01;5.17;;;4.67;;
14358;SDS011;7263;49.418;11.064;2023-04-15T01:30:35;5.37;;;4.10;;
14358;SDS011;7263;49.418;11.064;2023-04-15T01:33:02;6.67;;;4.40;;
14358;SDS011;7263;49.418;11.064;2023-04-15T01:35:31;5.07;;;3.93;;
14358;SDS011;7263;49.418;11.064;2023-04-15T01:38:04;4.83;;;3.97;;
14358;SDS011;7263;49.418;11.064;2023-04-15T01:40:33;4.30;;;3.83;;
14358;SDS011;7263;49.418;11.064;2023-04-15T01:43:00;4.63;;;3.90;;
14358;SDS011;7263;49.418;11.064;2023-04-15T01:45:49;4.20;;;3.70;;
14358;SDS011;7263;49.418;11.064;2023-04-15T01:48:22;4.40;;;3.60;;
14358;SDS011;7263;49.418;11.064;2023-04-15T01:50:58;3.80;;;3.27;;
14358;SDS011;7263;49.418;11.064;2023-04-15T01:53:27;5.57;;;4.07;;
14358;SDS011;7263;49.418;11.064;2023-04-15T01:55:57;4.27;;;3.87;;
14358;SDS011;7263;49.418;11.064;2023-04-15T01:58:26;4.27;;;3.87;;
14358;SDS011;7263;49.418;11.064;2023-04-15T02:00:59;4.23;;;3.83;;
14358;SDS011;7263;49.418;11.064;2023-04-15T02:03:27;4.57;;;4.07;;
14358;SDS011;7263;49.418;11.064;2023-04-15T02:06:04;4.10;;;3.77;;
14358;SDS011;7263;49.418;11.064;2023-04-15T02:08:34;4.57;;;3.90;;
14358;SDS011;7263;49.418;11.064;2023-04-15T02:11:08;5.47;;;4.10;;
14358;SDS011;7263;49.418;11.064;2023-04-15T02:13:35;4.30;;;3.90;;
14358;SDS011;7263;49.418;11.064;2023-04-15T02:16:04;4.33;;;4.03;;
14358;SDS011;7263;49.418;11.064;2023-04-15T02:18:45;4.00;;;3.63;;
14358;SDS011;7263;49.418;11.064;2023-04-15T02:21:12;4.87;;;4.30;;
14358;SDS011;7263;49.418;11.064;2023-04-15T02:23:40;4.00;;;3.70;;
14358;SDS011;7263;49.418;11.064;2023-04-15T02:26:16;4.27;;;3.87;;
14358;SDS011;7263;49.418;11.064;2023-04-15T02:28:49;5.30;;;4.00;;
14358;SDS011;7263;49.418;11.064;2023-04-15T02:31:22;4.23;;;3.60;;
14358;SDS011;7263;49.418;11.064;2023-04-15T02:34:01;5.20;;;3.80;;
14358;SDS011;7263;49.418;11.064;2023-04-15T02:36:31;4.63;;;4.23;;
14358;SDS011;7263;49.418;11.064;2023-04-15T02:38:58;4.43;;;4.03;;
14358;SDS011;7263;49.418;11.064;2023-04-15T02:41:27;4.53;;;4.17;;
14358;SDS011;7263;49.418;11.064;2023-04-15T02:43:57;4.73;;;4.27;;
14358;SDS011;7263;49.418;11.064;2023-04-15T02:46:27;4.40;;;4.00;;
14358;SDS011;7263;49.418;11.064;2023-04-15T02:48:56;4.40;;;4.00;;
14358;SDS011;7263;49.418;11.064;2023-04-15T02:51:23;4.57;;;4.10;;
14358;SDS011;7263;49.418;11.064;2023-04-15T02:53:55;4.43;;;4.03;;
14358;SDS011;7263;49.418;11.064;2023-04-15T02:56:22;4.47;;;4.07;;
14358;SDS011;7263;49.418;11.064;2023-04-15T02:58:57;4.10;;;3.70;;
14358;SDS011;7263;49.418;11.064;2023-04-15T03:01:24;5.90;;;4.17;;
14358;SDS011;7263;49.418;11.064;2023-04-15T03:03:54;15.33;;;13.90;;
14358;SDS011;7263;49.418;11.064;2023-04-15T03:06:26;4.77;;;4.37;;
14358;SDS011;7263;49.418;11.064;2023-04-15T03:08:53;4.53;;;4.13;;
14358;SDS011;7263;49.418;11.064;2023-04-15T03:11:28;4.20;;;3.80;;
14358;SDS011;7263;49.418;11.064;2023-04-15T03:13:55;5.73;;;4.13;;
14358;SDS011;7263;49.418;11.064;2023-04-15T03:16:22;3.83;;;3.53;;
14358;SDS011;7263;49.418;11.064;2023-04-15T03:18:49;4.93;;;3.93;;
14358;SDS011;7263;49.418;11.064;2023-04-15T03:21:25;4.20;;;3.80;;
14358;SDS011;7263;49.418;11.064;2023-04-15T03:23:57;4.07;;;3.60;;
14358;SDS011;7263;49.418;11.064;2023-04-15T03:26:25;4.60;;;3.77;;
14358;SDS011;7263;49.418;11.064;2023-04-15T03:28:54;4.37;;;3.97;;
14358;SDS011;7263;49.418;11.064;2023-04-15T03:31:21;4.33;;;3.90;;
14358;SDS011;7263;49.418;11.064;2023-04-15T03:33:48;5.10;;;4.43;;
14358;SDS011;7263;49.418;11.064;2023-04-15T03:36:15;5.30;;;3.57;;
14358;SDS011;7263;49.418;11.064;2023-04-15T03:38:45;4.40;;;4.00;;
14358;SDS011;7263;49.418;11.064;2023-04-15T03:41:20;4.77;;;4.07;;
14358;SDS011;7263;49.418;11.064;2023-04-15T03:43:50;4.00;;;3.70;;
14358;SDS011;7263;49.418;11.064;2023-04-15T03:46:18;4.27;;;3.83;;
14358;SDS011;7263;49.418;11.064;2023-04-15T03:48:47;4.20;;;3.80;;
14358;SDS011;7263;49.418;11.064;2023-04-15T03:51:19;4.27;;;3.87;;
14358;SDS011;7263;49.418;11.064;2023-04-15T03:53:56;5.77;;;4.33;;
14358;SDS011;7263;49.418;11.064;2023-04-15T03:56:29;4.93;;;4.13;;
14358;SDS011;7263;49.418;11.064;2023-04-15T03:58:59;4.67;;;4.27;;
14358;SDS011;7263;49.418;11.064;2023-04-15T04:01:27;4.67;;;4.07;;
14358;SDS011;7263;49.418;11.064;2023-04-15T04:04:00;4.63;;;4.23;;
14358;SDS011;7263;49.418;11.064;2023-04-15T04:06:26;4.60;;;4.07;;
14358;SDS011;7263;49.418;11.064;2023-04-15T04:08:56;4.57;;;4.17;;
14358;SDS011;7263;49.418;11.064;2023-04-15T04:11:26;4.87;;;4.37;;
14358;SDS011;7263;49.418;11.064;2023-04-15T04:13:56;4.33;;;3.93;;
14358;SDS011;7263;49.418;11.064;2023-04-15T04:16:43;4.60;;;4.20;;
14358;SDS011;7263;49.418;11.064;2023-04-15T04:19:10;4.73;;;4.33;;
14358;SDS011;7263;49.418;11.064;2023-04-15T04:21:43;4.80;;;4.40;;
14358;SDS011;7263;49.418;11.064;2023-04-15T04:24:10;4.87;;;4.37;;
14358;SDS011;7263;49.418;11.064;2023-04-15T04:26:40;6.17;;;4.30;;
14358;SDS011;7263;49.418;11.064;2023-04-15T04:29:10;5.27;;;4.43;;
14358;SDS011;7263;49.418;11.064;2023-04-15T04:31:41;5.20;;;4.70;;
14358;SDS011;7263;49.418;11.064;2023-04-15T04:34:09;5.87;;;4.90;;
14358;SDS011;7263;49.418;11.064;2023-04-15T04:36:36;4.67;;;4.20;;
14358;SDS011;7263;49.418;11.064;2023-04-15T04:39:06;4.67;;;4.27;;
14358;SDS011;7263;49.418;11.064;2023-04-15T04:41:33;5.10;;;4.60;;
14358;SDS011;7263;49.418;11.064;2023-04-15T04:44:03;5.00;;;4.50;;
14358;SDS011;7263;49.418;11.064;2023-04-15T04:46:30;5.67;;;4.77;;
14358;SDS011;7263;49.418;11.064;2023-04-15T04:48:58;5.67;;;4.53;;
14358;SDS011;7263;49.418;11.064;2023-04-15T04:51:25;4.60;;;4.20;;
14358;SDS011;7263;49.418;11.064;2023-04-15T04:54:05;4.90;;;4.40;;
14358;SDS011;7263;49.418;11.064;2023-04-15T04:56:39;4.87;;;4.27;;
14358;SDS011;7263;49.418;11.064;2023-04-15T04:59:05;4.90;;;4.40;;
14358;SDS011;7263;49.418;11.064;2023-04-15T05:01:34;4.93;;;4.50;;
14358;SDS011;7263;49.418;11.064;2023-04-15T05:04:02;4.60;;;4.20;;
14358;SDS011;7263;49.418;11.064;2023-04-15T05:06:32;4.90;;;4.40;;
14358;SDS011;7263;49.418;11.064;2023-04-15T05:09:03;4.30;;;3.90;;
14358;SDS011;7263;49.418;11.064;2023-04-15T05:11:52;4.57;;;4.17;;
14358;SDS011;7263;49.418;11.064;2023-04-15T05:14:24;4.43;;;4.00;;
14358;SDS011;7263;49.418;11.064;2023-04-15T05:16:51;4.60;;;4.20;;
14358;SDS011;7263;49.418;11.064;2023-04-15T05:19:21;4.40;;;4.00;;
14358;SDS011;7263;49.418;11.064;2023-04-15T05:21:54;4.67;;;4.27;;
14358;SDS011;7263;49.418;11.064;2023-04-15T05:24:20;5.13;;;4.63;;
14358;SDS011;7263;49.418;11.064;2023-04-15T05:26:47;4.80;;;4.40;;
14358;SDS011;7263;49.418;11.064;2023-04-15T05:29:17;5.57;;;4.30;;
14358;SDS011;7263;49.418;11.064;2023-04-15T05:31:46;4.43;;;4.00;;
14358;SDS011;7263;49.418;11.064;2023-04-15T05:34:13;5.40;;;4.20;;
14358;SDS011;7263;49.418;11.064;2023-04-15T05:36:47;4.63;;;4.13;;
14358;SDS011;7263;49.418;11.064;2023-04-15T05:39:14;5.40;;;4.33;;
14358;SDS011;7263;49.418;11.064;2023-04-15T05:41:41;5.90;;;4.40;;
14358;SDS011;7263;49.418;11.064;2023-04-15T05:44:08;4.83;;;4.43;;
14358;SDS011;7263;49.418;11.064;2023-04-15T05:46:37;5.33;;;4.30;;
14358;SDS011;7263;49.418;11.064;2023-04-15T05:49:06;5.30;;;4.80;;
14358;SDS011;7263;49.418;11.064;2023-04-15T05:51:41;8.10;;;7.33;;
14358;SDS011;7263;49.418;11.064;2023-04-15T05:54:12;8.87;;;7.97;;
14358;SDS011;7263;49.418;11.064;2023-04-15T05:56:39;8.27;;;7.43;;
14358;SDS011;7263;49.418;11.064;2023-04-15T05:59:11;5.43;;;4.93;;
14358;SDS011;7263;49.418;11.064;2023-04-15T06:01:38;5.40;;;4.90;;
14358;SDS011;7263;49.418;11.064;2023-04-15T06:04:04;5.27;;;4.77;;
14358;SDS011;7263;49.418;11.064;2023-04-15T06:06:35;6.40;;;5.63;;
14358;SDS011;7263;49.418;11.064;2023-04-15T06:09:07;5.70;;;5.20;;
14358;SDS011;7263;49.418;11.064;2023-04-15T06:11:40;5.53;;;4.80;;
14358;SDS011;7263;49.418;11.064;2023-04-15T06:14:07;6.10;;;5.30;;
14358;SDS011;7263;49.418;11.064;2023-04-15T06:16:40;5.47;;;4.40;;
14358;SDS011;7263;49.418;11.064;2023-04-15T06:19:13;5.30;;;4.80;;
14358;SDS011;7263;49.418;11.064;2023-04-15T06:21:45;5.00;;;4.50;;
14358;SDS011;7263;49.418;11.064;2023-04-15T06:24:12;4.90;;;4.50;;
14358;SDS011;7263;49.418;11.064;2023-04-15T06:26:43;5.07;;;4.60;;
14358;SDS011;7263;49.418;11.064;2023-04-15T06:29:15;4.67;;;4.27;;
14358;SDS011;7263;49.418;11.064;2023-04-15T06:31:42;4.80;;;4.30;;
14358;SDS011;7263;49.418;11.064;2023-04-15T06:34:09;5.77;;;4.27;;
14358;SDS011;7263;49.418;11.064;2023-04-15T06:36:36;5.60;;;5.00;;
14358;SDS011;7263;49.418;11.064;2023-04-15T06:39:03;4.63;;;4.23;;
14358;SDS011;7263;49.418;11.064;2023-04-15T06:41:30;5.70;;;5.10;;
14358;SDS011;7263;49.418;11.064;2023-04-15T06:44:04;7.27;;;6.57;;
14358;SDS011;7263;49.418;11.064;2023-04-15T06:46:31;6.90;;;6.20;;
14358;SDS011;7263;49.418;11.064;2023-04-15T06:48:58;5.60;;;5.07;;
14358;SDS011;7263;49.418;11.064;2023-04-15T06:51:24;18.43;;;15.87;;
14358;SDS011;7263;49.418;11.064;2023-04-15T06:53:54;5.23;;;4.73;;
14358;SDS011;7263;49.418;11.064;2023-04-15T06:56:22;7.03;;;6.20;;
14358;SDS011;7263;49.418;11.064;2023-04-15T06:58:55;5.77;;;4.93;;
14358;SDS011;7263;49.418;11.064;2023-04-15T07:01:26;5.87;;;5.23;;
14358;SDS011;7263;49.418;11.064;2023-04-15T07:03:53;5.67;;;4.70;;
14358;SDS011;7263;49.418;11.064;2023-04-15T07:06:20;6.00;;;4.30;;
14358;SDS011;7263;49.418;11.064;2023-04-15T07:08:46;4.93;;;4.53;;
14358;SDS011;7263;49.418;11.064;2023-04-15T07:11:16;5.37;;;4.87;;
14358;SDS011;7263;49.418;11.064;2023-04-15T07:13:43;5.47;;;4.97;;
14358;SDS011;7263;49.418;11.064;2023-04-15T07:16:13;5.63;;;5.00;;
14358;SDS011;7263;49.418;11.064;2023-04-15T07:18:41;5.30;;;4.80;;
14358;SDS011;7263;49.418;11.064;2023-04-15T07:21:10;5.57;;;5.07;;
14358;SDS011;7263;49.418;11.064;2023-04-15T07:23:40;10.40;;;8.53;;
14358;SDS011;7263;49.418;11.064;2023-04-15T07:26:10;7.90;;;7.10;;
14358;SDS011;7263;49.418;11.064;2023-04-15T07:28:41;6.63;;;5.10;;
14358;SDS011;7263;49.418;11.064;2023-04-15T07:31:18;5.50;;;5.00;;
14358;SDS011;7263;49.418;11.064;2023-04-15T07:33:55;7.90;;;7.10;;
14358;SDS011;7263;49.418;11.064;2023-04-15T07:36:23;5.67;;;5.00;;
14358;SDS011;7263;49.418;11.064;2023-04-15T07:38:57;5.30;;;4.80;;
14358;SDS011;7263;49.418;11.064;2023-04-15T07:41:35;5.50;;;5.00;;
14358;SDS011;7263;49.418;11.064;2023-04-15T07:44:16;5.30;;;4.80;;
14358;SDS011;7263;49.418;11.064;2023-04-15T07:46:42;9.17;;;7.80;;
14358;SDS011;7263;49.418;11.064;2023-04-15T07:49:15;5.33;;;4.83;;
14358;SDS011;7263;49.418;11.064;2023-04-15T07:51:47;14.23;;;11.30;;
14358;SDS011;7263;49.418;11.064;2023-04-15T07:54:16;4.73;;;3.87;;
14358;SDS011;7263;49.418;11.064;2023-04-15T07:56:53;3.40;;;3.10;;
14358;SDS011;7263;49.418;11.064;2023-04-15T08:11:35;2.67;;;2.47;;
14358;SDS011;7263;49.418;11.064;2023-04-15T08:14:02;4.93;;;3.40;;
14358;SDS011;7263;49.418;11.064;2023-04-15T08:16:28;3.73;;;3.10;;
14358;SDS011;7263;49.418;11.064;2023-04-15T08:19:02;4.20;;;3.63;;
14358;SDS011;7263;49.418;11.064;2023-04-15T08:21:32;5.20;;;4.70;;
14358;SDS011;7263;49.418;11.064;2023-04-15T08:24:02;4.47;;;4.07;;
14358;SDS011;7263;49.418;11.064;2023-04-15T08:26:35;3.50;;;3.20;;
14358;SDS011;7263;49.418;11.064;2023-04-15T08:29:02;4.83;;;4.40;;
14358;SDS011;7263;49.418;11.064;2023-04-15T08:31:32;4.80;;;3.43;;
14358;SDS011;7263;49.418;11.064;2023-04-15T08:34:01;3.40;;;3.10;;
14358;SDS011;7263;49.418;11.064;2023-04-15T08:36:27;5.17;;;3.70;;
14358;SDS011;7263;49.418;11.064;2023-04-15T08:38:57;3.50;;;3.17;;
14358;SDS011;7263;49.418;11.064;2023-04-15T08:41:25;4.57;;;3.03;;
14358;SDS011;7263;49.418;11.064;2023-04-15T08:44:03;3.43;;;2.90;;
14358;SDS011;7263;49.418;11.064;2023-04-15T08:46:32;2.87;;;2.20;;
14358;SDS011;7263;49.418;11.064;2023-04-15T08:49:02;2.30;;;2.10;;
14358;SDS011;7263;49.418;11.064;2023-04-15T08:51:32;3.00;;;2.63;;
14358;SDS011;7263;49.418;11.064;2023-04-15T08:54:09;1.60;;;1.50;;
14358;SDS011;7263;49.418;11.064;2023-04-15T08:56:37;1.90;;;1.53;;
14358;SDS011;7263;49.418;11.064;2023-04-15T08:59:06;1.30;;;1.20;;
14358;SDS011;7263;49.418;11.064;2023-04-15T09:01:43;3.43;;;1.60;;
14358;SDS011;7263;49.418;11.064;2023-04-15T09:04:11;1.57;;;1.27;;
14358;SDS011;7263;49.418;11.064;2023-04-15T09:06:38;1.50;;;1.20;;
14358;SDS011;7263;49.418;11.064;2023-04-15T09:09:08;2.07;;;1.73;;
14358;SDS011;7263;49.418;11.064;2023-04-15T09:11:34;2.10;;;1.50;;
14358;SDS011;7263;49.418;11.064;2023-04-15T09:14:16;2.83;;;1.57;;
14358;SDS011;7263;49.418;11.064;2023-04-15T09:17:04;2.00;;;1.60;;
14358;SDS011;7263;49.418;11.064;2023-04-15T09:19:35;1.83;;;1.63;;
14358;SDS011;7263;49.418;11.064;2023-04-15T09:22:08;1.67;;;1.20;;
14358;SDS011;7263;49.418;11.064;2023-04-15T09:24:35;0.90;;;0.90;;
14358;SDS011;7263;49.418;11.064;2023-04-15T09:27:03;1.53;;;0.90;;
14358;SDS011;7263;49.418;11.064;2023-04-15T09:32:18;1.03;;;0.97;;
14358;SDS011;7263;49.418;11.064;2023-04-15T09:34:47;1.00;;;1.00;;
14358;SDS011;7263;49.418;11.064;2023-04-15T09:37:14;1.73;;;1.10;;
14358;SDS011;7263;49.418;11.064;2023-04-15T09:39:51;1.07;;;0.97;;
14358;SDS011;7263;49.418;11.064;2023-04-15T09:42:20;1.40;;;1.03;;
14358;SDS011;7263;49.418;11.064;2023-04-15T09:44:50;1.30;;;1.00;;
14358;SDS011;7263;49.418;11.064;2023-04-15T09:50:03;1.70;;;1.60;;
14358;SDS011;7263;49.418;11.064;2023-04-15T09:52:30;2.27;;;1.70;;
14358;SDS011;7263;49.418;11.064;2023-04-15T09:55:07;6.50;;;1.80;;
14358;SDS011;7263;49.418;11.064;2023-04-15T09:57:45;2.20;;;1.97;;
14358;SDS011;7263;49.418;11.064;2023-04-15T10:00:24;2.37;;;2.00;;
14358;SDS011;7263;49.418;11.064;2023-04-15T10:02:57;1.57;;;1.30;;
14358;SDS011;7263;49.418;11.064;2023-04-15T10:05:26;1.13;;;1.03;;
14358;SDS011;7263;49.418;11.064;2023-04-15T10:07:54;1.70;;;1.20;;
14358;SDS011;7263;49.418;11.064;2023-04-15T10:10:21;2.03;;;1.07;;
14358;SDS011;7263;49.418;11.064;2023-04-15T10:12:57;1.30;;;1.20;;
14358;SDS011;7263;49.418;11.064;2023-04-15T10:15:30;1.23;;;1.13;;
14358;SDS011;7263;49.418;11.064;2023-04-15T10:17:59;1.20;;;1.10;;
14358;SDS011;7263;49.418;11.064;2023-04-15T10:20:26;1.20;;;1.10;;
14358;SDS011;7263;49.418;11.064;2023-04-15T10:22:56;1.23;;;1.13;;
14358;SDS011;7263;49.418;11.064;2023-04-15T10:25:23;1.50;;;1.40;;
14358;SDS011;7263;49.418;11.064;2023-04-15T10:27:52;1.33;;;1.20;;
14358;SDS011;7263;49.418;11.064;2023-04-15T10:30:20;1.40;;;1.20;;
14358;SDS011;7263;49.418;11.064;2023-04-15T10:32:49;1.80;;;1.43;;
14358;SDS011;7263;49.418;11.064;2023-04-15T10:35:17;1.50;;;1.40;;
14358;SDS011;7263;49.418;11.064;2023-04-15T10:37:45;2.23;;;1.47;;
14358;SDS011;7263;49.418;11.064;2023-04-15T10:40:28;1.50;;;1.40;;
14358;SDS011;7263;49.418;11.064;2023-04-15T10:42:57;2.00;;;1.63;;
14358;SDS011;7263;49.418;11.064;2023-04-15T10:45:36;1.90;;;1.80;;
14358;SDS011;7263;49.418;11.064;2023-04-15T10:48:07;1.90;;;1.80;;
14358;SDS011;7263;49.418;11.064;2023-04-15T10:50:33;2.57;;;1.97;;
14358;SDS011;7263;49.418;11.064;2023-04-15T10:56:01;2.07;;;1.97;;
14358;SDS011;7263;49.418;11.064;2023-04-15T10:58:39;3.03;;;2.23;;
14358;SDS011;7263;49.418;11.064;2023-04-15T11:01:09;3.53;;;2.13;;
14358;SDS011;7263;49.418;11.064;2023-04-15T11:03:40;2.80;;;1.90;;
14358;SDS011;7263;49.418;11.064;2023-04-15T11:06:12;3.13;;;2.07;;
14358;SDS011;7263;49.418;11.064;2023-04-15T11:08:52;2.40;;;2.20;;
14358;SDS011;7263;49.418;11.064;2023-04-15T11:14:24;2.50;;;2.30;;
14358;SDS011;7263;49.418;11.064;2023-04-15T11:16:51;2.27;;;1.80;;
14358;SDS011;7263;49.418;11.064;2023-04-15T11:19:19;1.87;;;1.67;;
14358;SDS011;7263;49.418;11.064;2023-04-15T11:21:46;2.97;;;1.87;;
14358;SDS011;7263;49.418;11.064;2023-04-15T11:24:22;2.00;;;1.80;;
14358;SDS011;7263;49.418;11.064;2023-04-15T11:26:56;1.70;;;1.60;;
14358;SDS011;7263;49.418;11.064;2023-04-15T11:29:27;1.67;;;1.57;;
14358;SDS011;7263;49.418;11.064;2023-04-15T11:32:00;2.27;;;1.90;;
14358;SDS011;7263;49.418;11.064;2023-04-15T11:34:33;2.23;;;1.83;;
14358;SDS011;7263;49.418;11.064;2023-04-15T11:37:03;2.60;;;1.90;;
14358;SDS011;7263;49.418;11.064;2023-04-15T11:39:37;2.43;;;1.97;;
14358;SDS011;7263;49.418;11.064;2023-04-15T11:42:11;1.73;;;1.60;;
14358;SDS011;7263;49.418;11.064;2023-04-15T11:44:44;1.70;;;1.60;;
14358;SDS011;7263;49.418;11.064;2023-04-15T11:47:21;1.93;;;1.80;;
14358;SDS011;7263;49.418;11.064;2023-04-15T11:49:58;2.20;;;1.73;;
14358;SDS011;7263;49.418;11.064;2023-04-15T11:52:40;2.90;;;1.63;;
14358;SDS011;7263;49.418;11.064;2023-04-15T11:55:18;1.70;;;1.50;;
14358;SDS011;7263;49.418;11.064;2023-04-15T11:57:45;1.57;;;1.47;;
14358;SDS011;7263;49.418;11.064;2023-04-15T12:00:32;2.37;;;1.80;;
14358;SDS011;7263;49.418;11.064;2023-04-15T12:03:12;2.23;;;1.77;;
14358;SDS011;7263;49.418;11.064;2023-04-15T12:08:51;1.60;;;1.50;;
14358;SDS011;7263;49.418;11.064;2023-04-15T12:11:26;1.83;;;1.63;;
14358;SDS011;7263;49.418;11.064;2023-04-15T12:16:56;2.20;;;1.53;;
14358;SDS011;7263;49.418;11.064;2023-04-15T12:19:30;1.53;;;1.40;;
14358;SDS011;7263;49.418;11.064;2023-04-15T12:22:04;1.73;;;1.40;;
14358;SDS011;7263;49.418;11.064;2023-04-15T12:24:36;2.33;;;1.40;;
14358;SDS011;7263;49.418;11.064;2023-04-15T12:27:04;2.23;;;1.60;;
14358;SDS011;7263;49.418;11.064;2023-04-15T12:29:41;2.00;;;1.50;;
14358;SDS011;7263;49.418;11.064;2023-04-15T12:32:10;1.47;;;1.37;;
14358;SDS011;7263;49.418;11.064;2023-04-15T12:34:48;1.67;;;1.57;;
14358;SDS011;7263;49.418;11.064;2023-04-15T12:37:17;1.43;;;1.33;;
14358;SDS011;7263;49.418;11.064;2023-04-15T12:39:58;1.60;;;1.50;;
14358;SDS011;7263;49.418;11.064;2023-04-15T12:42:28;1.80;;;1.70;;
14358;SDS011;7263;49.418;11.064;2023-04-15T12:44:54;1.90;;;1.70;;
14358;SDS011;7263;49.418;11.064;2023-04-15T12:47:24;2.27;;;1.80;;
14358;SDS011;7263;49.418;11.064;2023-04-15T12:49:51;2.10;;;1.90;;
14358;SDS011;7263;49.418;11.064;2023-04-15T12:52:22;2.27;;;2.07;;
14358;SDS011;7263;49.418;11.064;2023-04-15T12:54:54;2.50;;;2.00;;
14358;SDS011;7263;49.418;11.064;2023-04-15T12:57:21;1.70;;;1.60;;
14358;SDS011;7263;49.418;11.064;2023-04-15T12:59:53;1.97;;;1.50;;
14358;SDS011;7263;49.418;11.064;2023-04-15T13:02:20;4.17;;;3.87;;
14358;SDS011;7263;49.418;11.064;2023-04-15T13:04:52;2.80;;;2.60;;
14358;SDS011;7263;49.418;11.064;2023-04-15T13:07:21;2.23;;;2.03;;
14358;SDS011;7263;49.418;11.064;2023-04-15T13:09:47;1.93;;;1.57;;
14358;SDS011;7263;49.418;11.064;2023-04-15T13:12:17;1.90;;;1.47;;
14358;SDS011;7263;49.418;11.064;2023-04-15T13:14:43;1.30;;;1.20;;
14358;SDS011;7263;49.418;11.064;2023-04-15T13:17:13;1.40;;;1.30;;
14358;SDS011;7263;49.418;11.064;2023-04-15T13:19:41;1.60;;;1.50;;
14358;SDS011;7263;49.418;11.064;2023-04-15T13:22:08;2.70;;;1.40;;
14358;SDS011;7263;49.418;11.064;2023-04-15T13:24:37;8.07;;;7.30;;
14358;SDS011;7263;49.418;11.064;2023-04-15T13:27:04;4.40;;;3.97;;
14358;SDS011;7263;49.418;11.064;2023-04-15T13:29:32;1.63;;;1.20;;
14358;SDS011;7263;49.418;11.064;2023-04-15T13:32:01;1.13;;;1.10;;
14358;SDS011;7263;49.418;11.064;2023-04-15T13:34:28;1.83;;;1.73;;
14358;SDS011;7263;49.418;11.064;2023-04-15T13:37:07;2.03;;;1.83;;
14358;SDS011;7263;49.418;11.064;2023-04-15T13:39:45;2.20;;;2.00;;
14358;SDS011;7263;49.418;11.064;2023-04-15T13:42:12;1.70;;;1.50;;
14358;SDS011;7263;49.418;11.064;2023-04-15T13:44:42;4.17;;;1.50;;
14358;SDS011;7263;49.418;11.064;2023-04-15T13:47:08;2.13;;;1.50;;
14358;SDS011;7263;49.418;11.064;2023-04-15T13:49:35;1.00;;;0.93;;
14358;SDS011;7263;49.418;11.064;2023-04-15T13:52:02;1.40;;;1.30;;
14358;SDS011;7263;49.418;11.064;2023-04-15T13:54:29;1.50;;;1.40;;
14358;SDS011;7263;49.418;11.064;2023-04-15T13:57:06;1.40;;;1.30;;
14358;SDS011;7263;49.418;11.064;2023-04-15T13:59:41;1.60;;;1.50;;
14358;SDS011;7263;49.418;11.064;2023-04-15T14:02:09;1.40;;;1.30;;
14358;SDS011;7263;49.418;11.064;2023-04-15T14:04:38;2.30;;;1.50;;
14358;SDS011;7263;49.418;11.064;2023-04-15T14:07:05;1.30;;;1.20;;
14358;SDS011;7263;49.418;11.064;2023-04-15T14:09:43;1.50;;;1.40;;
14358;SDS011;7263;49.418;11.064;2023-04-15T14:12:14;2.97;;;1.63;;
14358;SDS011;7263;49.418;11.064;2023-04-15T14:14:47;2.37;;;1.67;;
14358;SDS011;7263;49.418;11.064;2023-04-15T14:17:17;3.07;;;1.90;;
14358;SDS011;7263;49.418;11.064;2023-04-15T14:19:53;1.80;;;1.70;;
14358;SDS011;7263;49.418;11.064;2023-04-15T14:22:23;1.80;;;1.70;;
14358;SDS011;7263;49.418;11.064;2023-04-15T14:27:29;1.90;;;1.80;;
14358;SDS011;7263;49.418;11.064;2023-04-15T14:29:56;1.53;;;1.43;;
14358;SDS011;7263;49.418;11.064;2023-04-15T14:32:23;1.67;;;1.50;;
14358;SDS011;7263;49.418;11.064;2023-04-15T14:34:50;1.80;;;1.70;;
14358;SDS011;7263;49.418;11.064;2023-04-15T14:37:29;2.93;;;2.00;;
14358;SDS011;7263;49.418;11.064;2023-04-15T14:39:55;2.10;;;1.90;;
14358;SDS011;7263;49.418;11.064;2023-04-15T14:42:33;2.73;;;2.10;;
14358;SDS011;7263;49.418;11.064;2023-04-15T14:45:04;2.10;;;1.90;;
14358;SDS011;7263;49.418;11.064;2023-04-15T14:47:35;1.90;;;1.80;;
14358;SDS011;7263;49.418;11.064;2023-04-15T14:50:06;2.10;;;1.90;;
14358;SDS011;7263;49.418;11.064;2023-04-15T14:52:34;1.80;;;1.70;;
14358;SDS011;7263;49.418;11.064;2023-04-15T14:55:09;1.50;;;1.40;;
14358;SDS011;7263;49.418;11.064;2023-04-15T14:57:55;1.70;;;1.60;;
14358;SDS011;7263;49.418;11.064;2023-04-15T15:00:34;2.07;;;1.70;;
14358;SDS011;7263;49.418;11.064;2023-04-15T15:03:09;2.40;;;1.80;;
14358;SDS011;7263;49.418;11.064;2023-04-15T15:05:40;2.07;;;1.87;;
14358;SDS011;7263;49.418;11.064;2023-04-15T15:08:19;1.77;;;1.67;;
14358;SDS011;7263;49.418;11.064;2023-04-15T15:10:46;2.27;;;2.07;;
14358;SDS011;7263;49.418;11.064;2023-04-15T15:13:19;1.73;;;1.63;;
14358;SDS011;7263;49.418;11.064;2023-04-15T15:15:49;1.63;;;1.40;;
14358;SDS011;7263;49.418;11.064;2023-04-15T15:18:18;2.30;;;1.90;;
14358;SDS011;7263;49.418;11.064;2023-04-15T15:20:45;1.93;;;1.43;;
14358;SDS011;7263;49.418;11.064;2023-04-15T15:23:21;2.50;;;2.07;;
14358;SDS011;7263;49.418;11.064;2023-04-15T15:25:59;2.50;;;2.00;;
14358;SDS011;7263;49.418;11.064;2023-04-15T15:28:28;6.10;;;4.67;;
14358;SDS011;7263;49.418;11.064;2023-04-15T15:30:56;6.63;;;5.47;;
14358;SDS011;7263;49.418;11.064;2023-04-15T15:33:23;6.17;;;4.43;;
14358;SDS011;7263;49.418;11.064;2023-04-15T15:35:50;6.17;;;4.63;;
14358;SDS011;7263;49.418;11.064;2023-04-15T15:38:19;16.33;;;12.30;;
14358;SDS011;7263;49.418;11.064;2023-04-15T15:40:59;35.43;;;25.63;;
14358;SDS011;7263;49.418;11.064;2023-04-15T15:43:40;49.50;;;35.53;;